Danforth, South Dakota
Current Conditions -  °F | °C
As of 3:55 PM on Saturday 25 Oct 2014 (Local Time) from KHON Reporting Station
Clear Clear  
Wind Chill: 19°   Ceiling: Unl
Heat Index: 19°   Visibility: 10mi
Dew Point: -2°   Wind: 5mph
Humidity: 23%   Direction: NA
Pressure: 30.09"   Gusts: NA
Location:  44.3714°N, 98.681°W
Report Text: KHON 252055Z AUTO VRB04KT 10SM CLR 19/M02 A3009 RMK AO2 SLP191 T01941022 56020
Loading
Personal Weather Stations






























Interactive Weather Map
Tropical Storm Tracking
New forecast layout! Learn more

10-Day Weather Forecast

Advertisements
Track Severe Weather on mobile